createdAt,value
2022-10-11T00:00:26.422Z,13.67
2022-10-11T00:02:28.102Z,11.10
2022-10-11T00:04:29.763Z,16.50
2022-10-11T00:06:31.386Z,14.97
2022-10-11T00:08:33.309Z,12.20
2022-10-11T00:10:35.134Z,15.60
2022-10-11T00:12:37.129Z,23.07
2022-10-11T00:14:39.034Z,15.80
2022-10-11T00:16:44.357Z,19.77
2022-10-11T00:18:46.354Z,17.77
2022-10-11T00:20:48.149Z,31.30
2022-10-11T00:22:50.375Z,20.23
2022-10-11T00:24:52.893Z,20.10
2022-10-11T00:26:54.509Z,14.77
2022-10-11T00:28:56.298Z,18.73
2022-10-11T00:30:58.413Z,19.57
2022-10-11T00:33:00.177Z,22.87
2022-10-11T00:35:06.183Z,21.60
2022-10-11T00:37:08.002Z,15.97
2022-10-11T00:39:09.777Z,29.53
2022-10-11T00:41:12.299Z,22.27
2022-10-11T00:43:19.475Z,20.33
2022-10-11T00:45:26.951Z,28.93
2022-10-11T00:47:28.574Z,37.47
2022-10-11T00:49:56.355Z,31.93
2022-10-11T00:52:04.787Z,26.93
2022-10-11T00:54:10.404Z,31.97
2022-10-11T00:56:26.719Z,35.40
2022-10-11T00:58:28.577Z,35.17
2022-10-11T01:00:30.461Z,29.13
2022-10-11T01:02:32.278Z,50.50
2022-10-11T01:04:34.915Z,32.17
2022-10-11T01:06:36.748Z,39.07
2022-10-11T01:08:39.145Z,38.77
2022-10-11T01:10:40.938Z,29.30
2022-10-11T01:13:06.532Z,40.60
2022-10-11T01:15:13.947Z,39.63
2022-10-11T01:17:41.121Z,47.47
2022-10-11T01:19:47.758Z,42.77
2022-10-11T01:22:09.505Z,47.07
2022-10-11T01:24:40.323Z,43.20
2022-10-11T01:26:59.917Z,58.43
2022-10-11T01:29:23.639Z,56.33
2022-10-11T01:31:47.487Z,67.23
2022-10-11T01:33:58.490Z,65.10
2022-10-11T01:36:12.066Z,73.83
2022-10-11T01:38:21.354Z,83.40
2022-10-11T01:40:33.543Z,80.27
2022-10-11T01:42:38.912Z,80.50
2022-10-11T01:44:44.737Z,102.23
2022-10-11T01:46:46.429Z,87.53
2022-10-11T01:48:53.386Z,98.33
2022-10-11T01:51:01.989Z,105.20
2022-10-11T01:53:21.143Z,92.13
2022-10-11T01:55:34.238Z,90.07
2022-10-11T01:57:53.975Z,121.20
2022-10-11T02:00:11.121Z,96.07
2022-10-11T02:02:46.389Z,94.70
2022-10-11T02:04:47.958Z,132.60
2022-10-11T02:07:06.270Z,129.13
2022-10-11T02:09:20.231Z,115.27
2022-10-11T02:11:33.647Z,117.43
2022-10-11T02:13:44.291Z,128.30
2022-10-11T02:15:48.571Z,287.67
2022-10-11T02:17:56.158Z,315.90
2022-10-11T02:20:00.797Z,562.77
2022-10-11T02:22:08.226Z,202.07
2022-10-11T02:24:33.026Z,392.33
2022-10-11T02:26:36.132Z,207.47
2022-10-11T02:28:40.520Z,378.20
2022-10-11T02:30:44.444Z,313.87
2022-10-11T02:32:48.022Z,575.30
2022-10-11T02:34:58.659Z,247.33
2022-10-11T02:37:19.175Z,777.17
2022-10-11T02:39:27.346Z,857.03
2022-10-11T02:41:38.034Z,742.90
2022-10-11T02:43:48.326Z,808.87
2022-10-11T02:45:59.793Z,834.73
2022-10-11T02:48:02.453Z,784.40
2022-10-11T02:50:05.065Z,784.07
2022-10-11T02:52:07.085Z,811.50
2022-10-11T02:54:08.753Z,605.87
2022-10-11T02:56:10.377Z,589.63
2022-10-11T02:58:11.997Z,542.17
2022-10-11T03:00:14.414Z,419.20
2022-10-11T03:02:16.099Z,452.93
2022-10-11T03:04:17.723Z,690.97
2022-10-11T03:06:19.585Z,413.13
2022-10-11T03:08:21.198Z,684.53
2022-10-11T03:10:23.020Z,524.93
2022-10-11T03:12:24.781Z,659.90
2022-10-11T03:14:26.666Z,714.27
2022-10-11T03:16:28.308Z,983.37
2022-10-11T03:18:30.769Z,568.00
2022-10-11T03:20:32.414Z,620.97
2022-10-11T03:22:34.076Z,976.97
2022-10-11T03:24:35.726Z,793.23
2022-10-11T03:26:37.425Z,775.83
2022-10-11T03:28:39.156Z,865.20
2022-10-11T03:30:41.003Z,960.80
2022-10-11T03:32:43.763Z,828.87
2022-10-11T03:34:45.486Z,892.57
2022-10-11T03:36:47.550Z,1080.73
2022-10-11T03:38:49.230Z,974.17
2022-10-11T03:40:51.004Z,1290.40
2022-10-11T03:42:54.699Z,892.87
2022-10-11T03:44:57.198Z,1169.67
2022-10-11T03:46:58.812Z,986.63
2022-10-11T03:49:00.514Z,1024.80
2022-10-11T03:51:02.359Z,1272.67
2022-10-11T03:53:04.742Z,1017.63
2022-10-11T03:55:07.255Z,870.10
2022-10-11T03:57:08.875Z,928.60
2022-10-11T03:59:10.580Z,879.37
2022-10-11T04:01:12.324Z,923.33
2022-10-11T04:03:14.097Z,905.60
2022-10-11T04:05:16.073Z,1020.33
2022-10-11T04:07:17.918Z,868.70
2022-10-11T04:09:19.558Z,1000.93
2022-10-11T04:11:21.562Z,1080.17
2022-10-11T04:13:23.251Z,1109.27
2022-10-11T04:15:24.873Z,1098.70
2022-10-11T04:17:26.646Z,1213.67
2022-10-11T04:19:28.924Z,1029.77
2022-10-11T04:21:30.868Z,1034.97
2022-10-11T04:23:33.417Z,953.00
2022-10-11T04:25:35.087Z,840.57
2022-10-11T04:27:36.761Z,944.00
2022-10-11T04:29:38.380Z,1250.87
2022-10-11T04:31:40.051Z,1010.03
2022-10-11T04:33:41.657Z,1248.30
2022-10-11T04:35:43.354Z,1007.00
2022-10-11T04:37:45.163Z,1052.73
2022-10-11T04:39:46.975Z,1039.17
2022-10-11T04:41:48.673Z,820.07
2022-10-11T04:43:50.309Z,975.60
2022-10-11T04:45:55.356Z,906.63
2022-10-11T04:47:57.301Z,824.83
2022-10-11T04:49:58.906Z,845.57
2022-10-11T04:52:00.536Z,733.57
2022-10-11T04:54:02.214Z,571.40
2022-10-11T04:56:07.616Z,406.07
2022-10-11T04:58:09.722Z,129.43
2022-10-11T05:00:12.218Z,217.57
2022-10-11T05:02:13.897Z,121.83
2022-10-11T05:04:15.622Z,243.77
2022-10-11T05:06:17.291Z,146.70
2022-10-11T05:08:19.406Z,248.00
2022-10-11T05:10:21.124Z,443.63
2022-10-11T05:12:23.229Z,317.90
2022-10-11T05:14:24.878Z,489.63
2022-10-11T05:16:26.534Z,175.57
2022-10-11T05:18:28.903Z,146.07
2022-10-11T05:20:30.666Z,177.37
2022-10-11T05:22:32.288Z,137.33
2022-10-11T05:24:34.127Z,127.67
2022-10-11T05:26:35.885Z,279.47
2022-10-11T05:28:37.609Z,200.07
2022-10-11T05:30:39.317Z,186.07
2022-10-11T05:32:41.038Z,285.10
2022-10-11T05:34:42.753Z,246.10
2022-10-11T05:36:44.401Z,233.67
2022-10-11T05:38:46.052Z,314.17
2022-10-11T05:40:47.764Z,140.03
2022-10-11T05:42:49.401Z,152.57
2022-10-11T05:44:51.014Z,118.67
2022-10-11T05:46:52.731Z,99.57
2022-10-11T05:48:54.380Z,77.23
2022-10-11T05:51:02.040Z,74.60
2022-10-11T05:53:04.960Z,82.73
2022-10-11T05:55:07.322Z,85.63
2022-10-11T05:57:08.911Z,114.43
2022-10-11T05:59:10.627Z,72.70
2022-10-11T06:01:26.449Z,83.07
2022-10-11T06:03:28.390Z,94.83
2022-10-11T06:05:30.075Z,75.53
2022-10-11T06:07:31.915Z,87.93
2022-10-11T06:09:34.854Z,81.63
2022-10-11T06:11:36.546Z,96.17
2022-10-11T06:13:38.198Z,72.70
2022-10-11T06:15:40.324Z,82.90
2022-10-11T06:17:41.929Z,69.13
2022-10-11T06:19:43.559Z,90.30
2022-10-11T06:21:48.458Z,73.10
2022-10-11T06:23:59.883Z,81.77
2022-10-11T06:26:07.087Z,70.10
2022-10-11T06:28:09.274Z,81.93
2022-10-11T06:30:11.135Z,78.30
2022-10-11T06:32:13.329Z,76.03
2022-10-11T06:34:16.131Z,62.50
2022-10-11T06:36:17.928Z,80.33
2022-10-11T06:38:19.578Z,61.00
2022-10-11T06:40:21.213Z,60.87
2022-10-11T06:42:22.817Z,59.50
2022-10-11T06:44:25.789Z,56.47
2022-10-11T06:46:28.049Z,66.70
2022-10-11T06:48:31.414Z,56.63
2022-10-11T06:50:57.937Z,49.93
2022-10-11T06:52:54.802Z,55.47
2022-10-11T06:54:56.429Z,53.33
2022-10-11T06:56:58.520Z,51.13
2022-10-11T06:59:00.870Z,53.10
2022-10-11T07:01:05.373Z,52.93
2022-10-11T07:03:08.125Z,47.97
2022-10-11T07:05:10.080Z,57.60
2022-10-11T07:07:14.169Z,56.20
2022-10-11T07:09:15.813Z,53.53
2022-10-11T07:11:20.898Z,52.50
2022-10-11T07:13:22.637Z,61.07
2022-10-11T07:15:24.306Z,46.37
2022-10-11T07:17:26.231Z,52.73
2022-10-11T07:19:27.938Z,41.87
2022-10-11T07:21:31.332Z,43.53
2022-10-11T07:23:33.398Z,48.43
2022-10-11T07:25:35.023Z,44.47
2022-10-11T07:27:36.690Z,58.83
2022-10-11T07:29:38.312Z,48.17
2022-10-11T07:31:41.872Z,47.60
2022-10-11T07:33:43.692Z,43.23
2022-10-11T07:35:48.357Z,39.93
2022-10-11T07:37:50.361Z,35.77
2022-10-11T07:39:52.025Z,45.67
2022-10-11T07:41:53.706Z,53.23
2022-10-11T07:43:55.572Z,53.60
2022-10-11T07:46:00.523Z,47.93
2022-10-11T07:48:02.180Z,53.13
2022-10-11T07:50:04.394Z,45.27
2022-10-11T07:52:06.065Z,46.60
2022-10-11T07:54:07.850Z,44.97
2022-10-11T07:56:12.528Z,44.73
2022-10-11T07:58:14.193Z,37.17
2022-10-11T08:00:16.153Z,50.83
2022-10-11T08:02:17.963Z,48.40
2022-10-11T08:04:21.328Z,43.70
2022-10-11T08:06:27.136Z,38.43
2022-10-11T08:08:29.426Z,44.23
2022-10-11T08:10:39.933Z,42.67
2022-10-11T08:12:41.573Z,44.63
2022-10-11T08:14:43.401Z,52.80
2022-10-11T08:16:45.188Z,37.77
2022-10-11T08:18:46.841Z,52.93
2022-10-11T08:20:48.598Z,57.07
2022-10-11T08:22:50.455Z,47.97
2022-10-11T08:24:52.097Z,43.70
2022-10-11T08:26:53.718Z,37.97
2022-10-11T08:28:55.418Z,37.13
2022-10-11T08:30:57.244Z,44.40
2022-10-11T08:32:58.928Z,39.30
2022-10-11T08:35:00.670Z,38.00
2022-10-11T08:37:02.293Z,39.30
2022-10-11T08:39:05.789Z,40.83
2022-10-11T08:41:31.205Z,37.20
2022-10-11T08:43:48.136Z,38.93
2022-10-11T08:45:53.698Z,37.63
2022-10-11T08:48:13.343Z,41.40
2022-10-11T08:50:23.351Z,32.37
2022-10-11T08:52:30.954Z,30.60
2022-10-11T08:54:40.371Z,33.77
2022-10-11T08:56:43.589Z,35.60
2022-10-11T08:58:51.857Z,34.10
2022-10-11T09:00:56.588Z,39.87
2022-10-11T09:03:09.496Z,27.90
2022-10-11T09:05:16.221Z,27.43
2022-10-11T09:07:23.545Z,32.17
2022-10-11T09:09:52.821Z,38.17
2022-10-11T09:12:17.435Z,38.77
2022-10-11T09:14:41.103Z,37.00
2022-10-11T09:17:03.323Z,28.03
2022-10-11T09:19:38.094Z,29.80
2022-10-11T09:21:51.238Z,33.87
2022-10-11T09:24:01.951Z,40.20
2022-10-11T09:26:14.602Z,34.07
2022-10-11T09:28:34.586Z,37.90
2022-10-11T09:30:40.265Z,48.83
2022-10-11T09:32:51.175Z,37.93
2022-10-11T09:35:17.417Z,40.63
2022-10-11T09:37:29.707Z,35.73
2022-10-11T09:39:31.298Z,51.93
2022-10-11T09:41:54.086Z,38.40
2022-10-11T09:43:55.739Z,41.27
2022-10-11T09:45:57.432Z,39.00
2022-10-11T09:48:02.330Z,37.50
2022-10-11T09:50:14.309Z,41.13
2022-10-11T09:52:19.639Z,40.57
2022-10-11T09:54:44.337Z,34.17
2022-10-11T09:56:46.654Z,37.60
2022-10-11T09:58:48.579Z,38.53
2022-10-11T10:01:12.285Z,37.83
2022-10-11T10:03:28.585Z,38.47
2022-10-11T10:05:35.375Z,30.87
2022-10-11T10:07:56.721Z,51.27
2022-10-11T10:09:58.893Z,37.57
2022-10-11T10:12:12.182Z,42.00
2022-10-11T10:14:28.747Z,32.07
2022-10-11T10:16:33.376Z,37.77
2022-10-11T10:18:37.798Z,36.00
2022-10-11T10:20:39.558Z,33.93
2022-10-11T10:22:41.349Z,34.90
2022-10-11T10:24:43.173Z,39.47
2022-10-11T10:27:04.833Z,34.87
2022-10-11T10:29:09.540Z,28.60
2022-10-11T10:31:23.003Z,31.90
2022-10-11T10:33:33.595Z,34.20
2022-10-11T10:35:48.468Z,39.00
2022-10-11T10:38:19.845Z,35.00
2022-10-11T10:40:32.784Z,26.30
2022-10-11T10:42:34.659Z,36.80
2022-10-11T10:44:36.303Z,30.47
2022-10-11T10:47:05.664Z,34.13
2022-10-11T10:49:51.904Z,25.53
2022-10-11T10:52:21.626Z,25.03
2022-10-11T10:54:35.154Z,24.70
2022-10-11T10:56:46.801Z,23.47
2022-10-11T10:58:57.698Z,25.33
2022-10-11T11:01:05.165Z,22.50
2022-10-11T11:03:16.460Z,26.37
2022-10-11T11:05:25.909Z,24.67
2022-10-11T11:07:38.311Z,24.63
2022-10-11T11:10:03.604Z,22.27
2022-10-11T11:12:23.104Z,21.77
2022-10-11T11:14:45.165Z,24.27
2022-10-11T11:17:11.511Z,36.20
2022-10-11T11:19:43.218Z,27.73
2022-10-11T11:21:59.455Z,28.40
2022-10-11T11:24:34.494Z,22.37
2022-10-11T11:26:55.026Z,26.33
2022-10-11T11:29:05.731Z,23.03
2022-10-11T11:31:29.044Z,22.20
2022-10-11T11:33:33.642Z,44.30
2022-10-11T11:35:45.801Z,21.03
2022-10-11T11:37:53.013Z,59.93
2022-10-11T11:40:08.029Z,42.20
2022-10-11T11:42:29.667Z,23.20
2022-10-11T11:44:38.866Z,25.57
2022-10-11T11:47:01.353Z,18.53
2022-10-11T11:49:13.103Z,19.47
2022-10-11T11:51:21.072Z,25.67
2022-10-11T11:53:51.020Z,30.10
2022-10-11T11:56:00.180Z,22.80
2022-10-11T11:58:10.691Z,16.63
2022-10-11T12:00:17.748Z,19.63
2022-10-11T12:02:45.230Z,19.87
2022-10-11T12:04:48.441Z,20.03
2022-10-11T12:07:21.638Z,16.07
2022-10-11T12:09:23.637Z,17.80
2022-10-11T12:11:34.551Z,16.10
2022-10-11T12:13:39.084Z,21.47
2022-10-11T12:16:06.197Z,23.43
2022-10-11T12:18:16.716Z,26.97
2022-10-11T12:20:33.764Z,15.97
2022-10-11T12:22:37.520Z,18.07
2022-10-11T12:24:59.130Z,20.23
2022-10-11T12:27:37.300Z,17.90
2022-10-11T12:29:49.954Z,20.80
2022-10-11T12:31:57.383Z,17.17
2022-10-11T12:34:01.731Z,19.50
2022-10-11T12:36:28.680Z,16.43
2022-10-11T12:38:37.228Z,21.70
2022-10-11T12:40:42.093Z,19.23
2022-10-11T12:43:12.070Z,18.23
2022-10-11T12:45:13.652Z,19.50
2022-10-11T12:47:34.621Z,17.27
2022-10-11T12:50:03.813Z,21.13
2022-10-11T12:52:17.562Z,25.70
2022-10-11T12:54:54.815Z,18.10
2022-10-11T12:57:22.424Z,21.83
2022-10-11T12:59:26.248Z,22.50
2022-10-11T13:01:34.708Z,16.17
2022-10-11T13:04:03.850Z,17.63
2022-10-11T13:06:24.857Z,17.97
2022-10-11T13:08:31.050Z,15.93
2022-10-11T13:10:43.513Z,26.53
2022-10-11T13:12:47.949Z,14.33
2022-10-11T13:15:09.929Z,20.17
2022-10-11T13:17:26.573Z,15.03
2022-10-11T13:19:29.281Z,18.40
2022-10-11T13:21:36.265Z,13.00
2022-10-11T13:23:38.838Z,19.57
2022-10-11T13:25:41.298Z,21.23
2022-10-11T13:27:43.574Z,15.87
2022-10-11T13:29:46.135Z,12.60
2022-10-11T13:31:49.119Z,14.80
2022-10-11T13:33:57.449Z,15.77
2022-10-11T13:36:01.782Z,14.17
2022-10-11T13:38:04.997Z,17.03
2022-10-11T13:40:11.853Z,23.30
2022-10-11T13:42:16.982Z,18.33
2022-10-11T13:44:18.845Z,15.13
2022-10-11T13:46:24.490Z,16.37
2022-10-11T13:48:31.477Z,17.00
2022-10-11T13:50:34.494Z,19.03
2022-10-11T13:52:36.472Z,17.80
2022-10-11T13:54:53.372Z,18.57
2022-10-11T13:56:55.779Z,16.67
2022-10-11T13:58:57.765Z,23.63
2022-10-11T14:01:16.835Z,21.83
2022-10-11T14:03:21.034Z,18.77
2022-10-11T14:05:36.729Z,14.97
2022-10-11T14:07:39.091Z,15.73
2022-10-11T14:09:45.615Z,15.97
2022-10-11T14:11:47.653Z,25.90
2022-10-11T14:13:52.054Z,14.63
2022-10-11T14:16:05.025Z,18.47
2022-10-11T14:18:33.178Z,19.27
2022-10-11T14:20:39.998Z,22.13
2022-10-11T14:22:41.693Z,16.43
2022-10-11T14:24:47.777Z,16.90
2022-10-11T14:26:52.365Z,16.23
2022-10-11T14:29:13.502Z,21.97
2022-10-11T14:31:15.201Z,20.23
2022-10-11T14:33:16.893Z,17.20
2022-10-11T14:35:27.481Z,23.13
2022-10-11T14:37:29.172Z,21.47
2022-10-11T14:39:32.270Z,19.50
2022-10-11T14:41:33.923Z,17.93
2022-10-11T14:43:35.641Z,24.27
2022-10-11T14:45:37.398Z,14.63
2022-10-11T14:47:42.972Z,24.33
2022-10-11T14:49:45.084Z,19.57
2022-10-11T14:51:49.347Z,25.23
2022-10-11T14:53:51.012Z,19.80
2022-10-11T14:55:52.933Z,21.20
2022-10-11T14:57:55.301Z,20.17
2022-10-11T14:59:56.929Z,23.03
2022-10-11T15:01:58.741Z,29.00
2022-10-11T15:04:00.447Z,19.27
2022-10-11T15:06:02.143Z,27.40
2022-10-11T15:08:05.562Z,25.77
2022-10-11T15:10:27.675Z,17.80
2022-10-11T15:12:29.325Z,23.33
2022-10-11T15:14:31.010Z,25.43
2022-10-11T15:16:33.399Z,22.10
2022-10-11T15:18:35.246Z,17.07
2022-10-11T15:20:39.627Z,32.43
2022-10-11T15:22:41.269Z,22.43
2022-10-11T15:24:42.989Z,26.23
2022-10-11T15:26:45.615Z,23.03
2022-10-11T15:28:48.569Z,20.27
2022-10-11T15:30:50.528Z,23.33
2022-10-11T15:32:53.362Z,25.30
2022-10-11T15:34:55.015Z,25.93
2022-10-11T15:36:56.656Z,21.93
2022-10-11T15:38:58.376Z,20.60
2022-10-11T15:41:00.633Z,24.80
2022-10-11T15:43:02.961Z,27.40
2022-10-11T15:45:05.054Z,36.80
2022-10-11T15:47:06.702Z,32.30
2022-10-11T15:49:13.460Z,31.87
2022-10-11T15:51:15.260Z,35.23
2022-10-11T15:53:23.168Z,44.70
2022-10-11T15:55:24.772Z,34.33
2022-10-11T15:57:26.395Z,33.30
2022-10-11T15:59:28.026Z,23.83
2022-10-11T16:01:29.891Z,24.37
2022-10-11T16:03:32.689Z,24.07
2022-10-11T16:05:34.410Z,23.10
2022-10-11T16:07:36.131Z,25.20
2022-10-11T16:09:37.842Z,32.53
2022-10-11T16:11:39.467Z,20.93
2022-10-11T16:13:41.269Z,26.33
2022-10-11T16:15:44.016Z,28.43
2022-10-11T16:17:46.484Z,23.70
2022-10-11T16:19:48.150Z,24.77
2022-10-11T16:21:49.854Z,31.10
2022-10-11T16:23:51.477Z,34.53
2022-10-11T16:26:01.078Z,30.63
2022-10-11T16:28:03.496Z,26.80
2022-10-11T16:30:05.656Z,33.03
2022-10-11T16:32:07.429Z,28.37
2022-10-11T16:34:09.131Z,35.40
2022-10-11T16:36:35.442Z,31.50
2022-10-11T16:38:37.041Z,31.10
2022-10-11T16:40:41.027Z,27.20
2022-10-11T16:42:43.366Z,30.13
2022-10-11T16:44:45.062Z,30.77
2022-10-11T16:46:48.556Z,27.50
2022-10-11T16:48:50.453Z,31.30
2022-10-11T16:50:52.104Z,29.47
2022-10-11T16:52:55.377Z,24.40
2022-10-11T16:54:57.066Z,23.00
2022-10-11T16:56:59.910Z,25.50
2022-10-11T16:59:01.924Z,24.70
2022-10-11T17:01:09.204Z,22.00
2022-10-11T17:03:10.890Z,28.90
2022-10-11T17:05:12.610Z,21.53
2022-10-11T17:07:14.504Z,24.60
2022-10-11T17:09:16.468Z,28.30
2022-10-11T17:11:18.368Z,36.73
2022-10-11T17:13:20.715Z,33.67
2022-10-11T17:15:23.057Z,30.60
2022-10-11T17:17:24.732Z,27.73
2022-10-11T17:19:26.471Z,34.83
2022-10-11T17:21:28.395Z,28.43
2022-10-11T17:23:30.351Z,29.67
2022-10-11T17:25:31.975Z,38.00
2022-10-11T17:27:33.595Z,39.17
2022-10-11T17:29:35.824Z,33.83
2022-10-11T17:31:38.468Z,37.30
2022-10-11T17:33:40.217Z,35.50
2022-10-11T17:35:41.869Z,36.77
2022-10-11T17:37:43.704Z,30.07
2022-10-11T17:39:45.359Z,38.07
2022-10-11T17:41:47.393Z,33.57
2022-10-11T17:43:49.118Z,33.73
2022-10-11T17:45:58.945Z,34.93
2022-10-11T17:48:03.907Z,35.27
2022-10-11T17:50:06.143Z,33.50
2022-10-11T17:52:09.423Z,42.07
2022-10-11T17:54:12.829Z,46.30
2022-10-11T17:56:17.972Z,50.47
2022-10-11T17:58:19.787Z,44.60
2022-10-11T18:00:21.421Z,53.07
2022-10-11T18:02:23.059Z,40.17
2022-10-11T18:04:26.846Z,51.77
2022-10-11T18:06:31.300Z,54.30
2022-10-11T18:08:40.443Z,51.07
2022-10-11T18:10:47.330Z,46.57
2022-10-11T18:12:53.530Z,48.97
2022-10-11T18:14:55.195Z,50.40
2022-10-11T18:16:56.940Z,62.10
2022-10-11T18:18:59.388Z,49.60
2022-10-11T18:21:01.287Z,58.80
2022-10-11T18:23:03.046Z,46.03
2022-10-11T18:25:05.102Z,51.23
2022-10-11T18:27:06.741Z,47.87
2022-10-11T18:29:08.831Z,43.20
2022-10-11T18:31:14.455Z,54.00
2022-10-11T18:33:17.338Z,52.80
2022-10-11T18:35:19.042Z,53.87
2022-10-11T18:37:20.665Z,43.93
2022-10-11T18:39:22.397Z,54.73
2022-10-11T18:41:30.675Z,50.23
2022-10-11T18:43:32.677Z,39.30
2022-10-11T18:45:34.333Z,38.97
2022-10-11T18:47:36.326Z,37.63
2022-10-11T18:49:37.974Z,45.33
2022-10-11T18:51:42.565Z,46.77
2022-10-11T18:53:45.370Z,43.93
2022-10-11T18:55:47.193Z,45.37
2022-10-11T18:57:48.838Z,45.20
2022-10-11T18:59:50.516Z,44.97
2022-10-11T19:01:52.511Z,40.10
2022-10-11T19:03:56.761Z,43.33
2022-10-11T19:06:02.189Z,38.63
2022-10-11T19:08:03.979Z,37.83
2022-10-11T19:10:06.118Z,44.03
2022-10-11T19:12:07.827Z,45.67
2022-10-11T19:14:12.226Z,43.60
2022-10-11T19:16:17.046Z,39.60
2022-10-11T19:18:20.545Z,39.70
2022-10-11T19:20:22.362Z,35.03
2022-10-11T19:22:24.213Z,34.80
2022-10-11T19:24:27.781Z,36.03
2022-10-11T19:26:33.409Z,38.23
2022-10-11T19:28:35.711Z,37.90
2022-10-11T19:30:37.434Z,37.30
2022-10-11T19:32:39.066Z,43.27
2022-10-11T19:34:40.697Z,39.50
2022-10-11T19:36:43.162Z,32.87
2022-10-11T19:38:49.584Z,49.03
2022-10-11T19:40:51.955Z,33.70
2022-10-11T19:42:53.733Z,38.97
2022-10-11T19:44:55.549Z,35.87
2022-10-11T19:47:01.443Z,36.67
2022-10-11T19:49:06.085Z,36.80
2022-10-11T19:51:10.453Z,32.87
2022-10-11T19:53:12.194Z,33.80
2022-10-11T19:55:13.953Z,34.73
2022-10-11T19:57:15.571Z,34.23
2022-10-11T19:59:17.348Z,37.00
2022-10-11T20:01:21.804Z,32.03
2022-10-11T20:03:23.540Z,35.47
2022-10-11T20:05:25.209Z,32.17
2022-10-11T20:07:26.838Z,30.70
2022-10-11T20:09:30.302Z,32.87
2022-10-11T20:11:32.410Z,30.27
2022-10-11T20:13:35.570Z,37.83
2022-10-11T20:15:38.101Z,36.57
2022-10-11T20:17:48.865Z,30.90
2022-10-11T20:19:50.707Z,37.57
2022-10-11T20:21:53.057Z,32.10
2022-10-11T20:23:59.030Z,34.53
2022-10-11T20:26:11.499Z,35.40
2022-10-11T20:28:13.392Z,38.10
2022-10-11T20:30:15.209Z,34.67
2022-10-11T20:32:16.970Z,31.90
2022-10-11T20:34:18.617Z,31.93
2022-10-11T20:36:22.582Z,30.40
2022-10-11T20:38:24.410Z,30.73
2022-10-11T20:40:26.028Z,33.33
2022-10-11T20:42:29.687Z,29.40
2022-10-11T20:44:31.640Z,26.17
2022-10-11T20:46:36.660Z,29.47
2022-10-11T20:48:40.625Z,30.70
2022-10-11T20:50:44.505Z,25.80
2022-10-11T20:52:46.101Z,29.13
2022-10-11T20:54:47.793Z,27.13
2022-10-11T20:56:49.425Z,28.50
2022-10-11T20:58:53.869Z,28.47
2022-10-11T21:00:55.721Z,36.63
2022-10-11T21:02:57.321Z,29.77
2022-10-11T21:04:58.974Z,27.47
2022-10-11T21:07:00.733Z,28.00
2022-10-11T21:09:02.598Z,39.37
2022-10-11T21:11:05.861Z,26.33
2022-10-11T21:13:07.602Z,30.40
2022-10-11T21:15:09.278Z,29.27
2022-10-11T21:17:11.055Z,27.80
2022-10-11T21:19:15.183Z,29.20
2022-10-11T21:21:16.942Z,35.70
2022-10-11T21:23:18.925Z,29.37
2022-10-11T21:25:20.877Z,32.03
2022-10-11T21:27:22.630Z,27.80
2022-10-11T21:29:24.277Z,35.50
2022-10-11T21:31:31.058Z,27.33
2022-10-11T21:33:36.606Z,31.90
2022-10-11T21:35:39.729Z,27.70
2022-10-11T21:37:41.367Z,37.40
2022-10-11T21:39:43.009Z,34.60
2022-10-11T21:41:44.833Z,28.97
2022-10-11T21:43:47.259Z,27.10
2022-10-11T21:45:49.079Z,31.70
2022-10-11T21:47:50.805Z,37.53
2022-10-11T21:49:52.431Z,33.30
2022-10-11T21:51:54.133Z,29.60
2022-10-11T21:53:57.514Z,26.70
2022-10-11T21:56:00.089Z,27.20
2022-10-11T21:58:01.849Z,24.27
2022-10-11T22:00:05.446Z,28.13
2022-10-11T22:02:07.486Z,41.57
2022-10-11T22:04:10.172Z,28.90
2022-10-11T22:06:12.713Z,23.23
2022-10-11T22:08:15.321Z,30.30
2022-10-11T22:10:17.268Z,30.77
2022-10-11T22:12:18.942Z,30.30
2022-10-11T22:14:20.695Z,29.83
2022-10-11T22:16:22.459Z,28.63
2022-10-11T22:18:24.852Z,23.03
2022-10-11T22:20:26.846Z,29.83
2022-10-11T22:22:28.502Z,24.00
2022-10-11T22:24:30.272Z,35.43
2022-10-11T22:26:35.526Z,29.00
2022-10-11T22:28:37.816Z,20.93
2022-10-11T22:30:39.526Z,33.33
2022-10-11T22:32:41.145Z,22.43
2022-10-11T22:34:43.079Z,21.57
2022-10-11T22:36:44.763Z,27.23
2022-10-11T22:38:46.989Z,29.87
2022-10-11T22:40:48.660Z,35.87
2022-10-11T22:42:50.669Z,29.90
2022-10-11T22:44:52.577Z,32.30
2022-10-11T22:46:54.174Z,21.63
2022-10-11T22:48:56.180Z,28.20
2022-10-11T22:50:57.819Z,24.50
2022-10-11T22:52:59.414Z,20.47
2022-10-11T22:55:01.246Z,25.27
2022-10-11T22:57:02.985Z,32.27
2022-10-11T22:59:04.770Z,29.77
2022-10-11T23:01:11.445Z,28.67
2022-10-11T23:03:14.102Z,32.37
2022-10-11T23:05:15.942Z,33.37
2022-10-11T23:07:17.629Z,27.27
2022-10-11T23:09:19.228Z,22.60
2022-10-11T23:11:20.930Z,29.60
2022-10-11T23:13:22.742Z,21.30
2022-10-11T23:15:24.422Z,31.97
2022-10-11T23:17:26.025Z,29.63
2022-10-11T23:19:27.645Z,28.27
2022-10-11T23:21:29.262Z,32.90
2022-10-11T23:23:31.142Z,28.93
2022-10-11T23:25:33.012Z,29.23
2022-10-11T23:27:34.768Z,21.40
2022-10-11T23:29:40.084Z,27.30
2022-10-11T23:31:41.742Z,28.53
2022-10-11T23:33:44.428Z,31.13
2022-10-11T23:35:46.027Z,20.63
2022-10-11T23:37:47.713Z,26.20
2022-10-11T23:39:49.342Z,22.33
2022-10-11T23:41:51.253Z,20.20
2022-10-11T23:43:53.378Z,22.43
2022-10-11T23:45:55.860Z,29.70
2022-10-11T23:47:57.498Z,23.63
2022-10-11T23:49:59.137Z,26.00
2022-10-11T23:52:00.842Z,31.37
2022-10-11T23:54:02.676Z,28.20
2022-10-11T23:56:05.380Z,30.97
2022-10-11T23:58:07.112Z,30.13
